KFME/FME METAR and TAF weather

Enter ICAO airport designator
Station Type Date Time Source
KFME METAR 2020/01/18 15:48 UTC NOAA

KFME 181548Z AUTO 18008KT 10SM SCT075 BKN100 OVC120 00/M06 A3049 RMK AO1


Station Type Date Time Source
KFME Decoded METAR 2020/01/18 15:48 UTC NOAA

Fort Meade / Tipton, MD, United States (KFME) 39-05N 076-46W
Jan 18, 2020 - 10:48 AM EST / 2020.01.18 1548 UTC
Wind: from the S (180 degrees) at 9 MPH (8 KT):0
Visibility: 10 mile(s):0
Sky conditions: overcast
Temperature: 32 F (0 C)
Windchill: 24 F (-4 C):1
Dew Point: 21 F (-6 C)
Relative Humidity: 63%
Pressure (altimeter): 30.49 in. Hg (1032 hPa)
ob: KFME 181548Z AUTO 18008KT 10SM SCT075 BKN100 OVC120 00/M06 A3049 RMK AO1
cycle: 16

Station Type Date Time Source
KFME TAF UTC NOAA

Error!

Example: see airport list